sensor_id;sensor_type;location;lat;lon;timestamp;temperature;humidity
42663;DHT22;44330;51.360;6.686;2023-02-28T00:02:16;1.90;1.00
42663;DHT22;44330;51.360;6.686;2023-02-28T00:04:43;1.90;99.90
42663;DHT22;44330;51.360;6.686;2023-02-28T00:07:09;2.00;1.00
42663;DHT22;44330;51.360;6.686;2023-02-28T00:09:34;2.00;99.90
42663;DHT22;44330;51.360;6.686;2023-02-28T00:12:00;2.00;99.90
42663;DHT22;44330;51.360;6.686;2023-02-28T00:14:35;2.00;1.00
42663;DHT22;44330;51.360;6.686;2023-02-28T00:17:01;2.00;99.90
42663;DHT22;44330;51.360;6.686;2023-02-28T00:19:26;2.00;99.90
42663;DHT22;44330;51.360;6.686;2023-02-28T00:21:52;2.00;99.90
42663;DHT22;44330;51.360;6.686;2023-02-28T00:24:17;2.00;99.90
42663;DHT22;44330;51.360;6.686;2023-02-28T00:26:43;2.00;1.00
42663;DHT22;44330;51.360;6.686;2023-02-28T00:29:08;2.10;1.00
42663;DHT22;44330;51.360;6.686;2023-02-28T00:31:34;2.10;1.00
42663;DHT22;44330;51.360;6.686;2023-02-28T00:34:00;2.10;99.90
42663;DHT22;44330;51.360;6.686;2023-02-28T00:36:25;2.10;92.50
42663;DHT22;44330;51.360;6.686;2023-02-28T00:38:51;2.20;99.90
42663;DHT22;44330;51.360;6.686;2023-02-28T00:41:17;2.20;38.50
42663;DHT22;44330;51.360;6.686;2023-02-28T00:43:43;2.20;1.00
42663;DHT22;44330;51.360;6.686;2023-02-28T00:46:08;2.20;99.90
42663;DHT22;44330;51.360;6.686;2023-02-28T00:48:34;2.20;99.90
42663;DHT22;44330;51.360;6.686;2023-02-28T00:51:00;2.20;99.90
42663;DHT22;44330;51.360;6.686;2023-02-28T00:53:26;2.10;99.90
42663;DHT22;44330;51.360;6.686;2023-02-28T00:55:51;2.00;99.90
42663;DHT22;44330;51.360;6.686;2023-02-28T00:58:17;1.90;99.90
42663;DHT22;44330;51.360;6.686;2023-02-28T01:00:42;1.80;1.00
42663;DHT22;44330;51.360;6.686;2023-02-28T01:03:08;1.80;51.20
42663;DHT22;44330;51.360;6.686;2023-02-28T01:05:33;1.70;99.90
42663;DHT22;44330;51.360;6.686;2023-02-28T01:07:59;1.70;99.90
42663;DHT22;44330;51.360;6.686;2023-02-28T01:10:25;1.60;94.70
42663;DHT22;44330;51.360;6.686;2023-02-28T01:12:51;1.50;99.90
42663;DHT22;44330;51.360;6.686;2023-02-28T01:15:16;1.50;99.90
42663;DHT22;44330;51.360;6.686;2023-02-28T01:17:42;1.30;1.00
42663;DHT22;44330;51.360;6.686;2023-02-28T01:20:08;1.30;99.90
42663;DHT22;44330;51.360;6.686;2023-02-28T01:22:35;1.20;99.90
42663;DHT22;44330;51.360;6.686;2023-02-28T01:25:00;1.20;99.90
42663;DHT22;44330;51.360;6.686;2023-02-28T01:27:26;1.10;99.90
42663;DHT22;44330;51.360;6.686;2023-02-28T01:29:52;1.00;99.90
42663;DHT22;44330;51.360;6.686;2023-02-28T01:32:17;1.00;99.90
42663;DHT22;44330;51.360;6.686;2023-02-28T01:34:43;1.00;99.90
42663;DHT22;44330;51.360;6.686;2023-02-28T01:37:08;0.90;99.90
42663;DHT22;44330;51.360;6.686;2023-02-28T01:39:34;0.80;99.90
42663;DHT22;44330;51.360;6.686;2023-02-28T01:41:59;0.80;1.00
42663;DHT22;44330;51.360;6.686;2023-02-28T01:45:03;0.70;1.00
42663;DHT22;44330;51.360;6.686;2023-02-28T01:47:35;0.60;1.00
42663;DHT22;44330;51.360;6.686;2023-02-28T01:50:04;0.60;1.00
42663;DHT22;44330;51.360;6.686;2023-02-28T01:52:31;0.50;1.00
42663;DHT22;44330;51.360;6.686;2023-02-28T01:54:59;0.50;1.00
42663;DHT22;44330;51.360;6.686;2023-02-28T01:57:30;0.50;1.00
42663;DHT22;44330;51.360;6.686;2023-02-28T02:00:06;0.50;1.00
42663;DHT22;44330;51.360;6.686;2023-02-28T02:02:34;0.50;1.00
42663;DHT22;44330;51.360;6.686;2023-02-28T02:05:07;0.60;1.00
42663;DHT22;44330;51.360;6.686;2023-02-28T02:07:36;0.60;1.00
42663;DHT22;44330;51.360;6.686;2023-02-28T02:32:14;0.70;1.00
42663;DHT22;44330;51.360;6.686;2023-02-28T02:35:05;0.70;1.00
42663;DHT22;44330;51.360;6.686;2023-02-28T02:37:51;0.70;1.00
42663;DHT22;44330;51.360;6.686;2023-02-28T02:40:22;0.70;1.00
42663;DHT22;44330;51.360;6.686;2023-02-28T02:43:15;0.60;1.00
42663;DHT22;44330;51.360;6.686;2023-02-28T02:45:53;0.50;1.00
42663;DHT22;44330;51.360;6.686;2023-02-28T02:48:24;0.40;1.00
42663;DHT22;44330;51.360;6.686;2023-02-28T02:50:54;0.20;1.00
42663;DHT22;44330;51.360;6.686;2023-02-28T02:53:26;0.10;1.00
42663;DHT22;44330;51.360;6.686;2023-02-28T02:55:53;-0.10;1.00
42663;DHT22;44330;51.360;6.686;2023-02-28T02:58:24;-0.20;1.00
42663;DHT22;44330;51.360;6.686;2023-02-28T03:00:53;-0.30;7.00
42663;DHT22;44330;51.360;6.686;2023-02-28T03:03:20;-0.20;15.70
42663;DHT22;44330;51.360;6.686;2023-02-28T03:05:58;-0.20;15.60
42663;DHT22;44330;51.360;6.686;2023-02-28T03:08:25;-0.30;16.10
42663;DHT22;44330;51.360;6.686;2023-02-28T03:10:58;-0.20;19.60
42663;DHT22;44330;51.360;6.686;2023-02-28T03:16:28;-0.20;12.70
42663;DHT22;44330;51.360;6.686;2023-02-28T03:24:57;-0.10;3.40
42663;DHT22;44330;51.360;6.686;2023-02-28T03:27:30;-0.20;1.00
42663;DHT22;44330;51.360;6.686;2023-02-28T03:30:06;-0.20;1.00
42663;DHT22;44330;51.360;6.686;2023-02-28T03:35:16;-0.10;1.00
42663;DHT22;44330;51.360;6.686;2023-02-28T03:37:56;-0.10;1.00
42663;DHT22;44330;51.360;6.686;2023-02-28T03:40:28;-0.10;1.00
42663;DHT22;44330;51.360;6.686;2023-02-28T03:43:01;0.00;1.00
42663;DHT22;44330;51.360;6.686;2023-02-28T03:45:33;0.00;1.00
42663;DHT22;44330;51.360;6.686;2023-02-28T03:48:06;0.00;1.00
42663;DHT22;44330;51.360;6.686;2023-02-28T03:50:42;0.10;99.90
42663;DHT22;44330;51.360;6.686;2023-02-28T03:53:21;0.20;99.90
42663;DHT22;44330;51.360;6.686;2023-02-28T03:55:52;0.20;99.90
42663;DHT22;44330;51.360;6.686;2023-02-28T03:58:31;0.20;99.90
42663;DHT22;44330;51.360;6.686;2023-02-28T04:01:16;0.20;1.00
42663;DHT22;44330;51.360;6.686;2023-02-28T04:03:44;0.10;1.00
42663;DHT22;44330;51.360;6.686;2023-02-28T04:06:16;0.10;1.00
42663;DHT22;44330;51.360;6.686;2023-02-28T04:08:43;0.10;99.90
42663;DHT22;44330;51.360;6.686;2023-02-28T04:11:33;0.20;99.90
42663;DHT22;44330;51.360;6.686;2023-02-28T04:14:00;0.10;99.90
42663;DHT22;44330;51.360;6.686;2023-02-28T04:16:26;0.10;99.90
42663;DHT22;44330;51.360;6.686;2023-02-28T04:18:51;0.00;99.90
42663;DHT22;44330;51.360;6.686;2023-02-28T04:21:17;0.10;99.90
42663;DHT22;44330;51.360;6.686;2023-02-28T04:23:46;0.10;99.90
42663;DHT22;44330;51.360;6.686;2023-02-28T04:26:11;0.00;99.90
42663;DHT22;44330;51.360;6.686;2023-02-28T04:28:37;0.10;99.90
42663;DHT22;44330;51.360;6.686;2023-02-28T04:31:04;0.00;99.90
42663;DHT22;44330;51.360;6.686;2023-02-28T04:33:31;0.00;99.90
42663;DHT22;44330;51.360;6.686;2023-02-28T04:35:59;0.00;99.90
42663;DHT22;44330;51.360;6.686;2023-02-28T04:38:25;0.10;99.90
42663;DHT22;44330;51.360;6.686;2023-02-28T04:40:50;0.10;99.90
42663;DHT22;44330;51.360;6.686;2023-02-28T04:43:16;0.20;81.90
42663;DHT22;44330;51.360;6.686;2023-02-28T04:45:41;0.30;99.90
42663;DHT22;44330;51.360;6.686;2023-02-28T04:48:07;0.40;68.20
42663;DHT22;44330;51.360;6.686;2023-02-28T04:50:32;0.40;24.80
42663;DHT22;44330;51.360;6.686;2023-02-28T04:52:58;0.50;1.00
42663;DHT22;44330;51.360;6.686;2023-02-28T04:55:24;0.40;99.90
42663;DHT22;44330;51.360;6.686;2023-02-28T04:57:49;0.30;51.50
42663;DHT22;44330;51.360;6.686;2023-02-28T05:00:15;0.30;1.00
42663;DHT22;44330;51.360;6.686;2023-02-28T05:02:42;0.30;99.90
42663;DHT22;44330;51.360;6.686;2023-02-28T05:05:08;0.20;99.90
42663;DHT22;44330;51.360;6.686;2023-02-28T05:07:33;0.20;99.90
42663;DHT22;44330;51.360;6.686;2023-02-28T05:09:59;0.10;99.90
42663;DHT22;44330;51.360;6.686;2023-02-28T05:12:25;0.00;99.90
42663;DHT22;44330;51.360;6.686;2023-02-28T05:14:50;0.00;99.90
42663;DHT22;44330;51.360;6.686;2023-02-28T05:17:16;0.00;1.00
42663;DHT22;44330;51.360;6.686;2023-02-28T05:19:42;0.00;99.90
42663;DHT22;44330;51.360;6.686;2023-02-28T05:22:13;0.10;99.90
42663;DHT22;44330;51.360;6.686;2023-02-28T05:24:40;0.10;99.90
42663;DHT22;44330;51.360;6.686;2023-02-28T05:27:08;0.10;91.40
42663;DHT22;44330;51.360;6.686;2023-02-28T05:29:33;0.10;99.90
42663;DHT22;44330;51.360;6.686;2023-02-28T05:31:59;0.10;99.90
42663;DHT22;44330;51.360;6.686;2023-02-28T05:34:25;0.00;1.00
42663;DHT22;44330;51.360;6.686;2023-02-28T05:36:50;0.10;99.90
42663;DHT22;44330;51.360;6.686;2023-02-28T05:39:16;0.10;1.00
42663;DHT22;44330;51.360;6.686;2023-02-28T05:41:42;0.10;99.90
42663;DHT22;44330;51.360;6.686;2023-02-28T05:44:08;0.00;99.90
42663;DHT22;44330;51.360;6.686;2023-02-28T05:46:34;-0.10;1.00
42663;DHT22;44330;51.360;6.686;2023-02-28T05:48:59;-0.20;99.90
42663;DHT22;44330;51.360;6.686;2023-02-28T05:51:26;-0.30;28.30
42663;DHT22;44330;51.360;6.686;2023-02-28T05:53:51;-0.40;99.90
42663;DHT22;44330;51.360;6.686;2023-02-28T05:56:17;-0.30;99.90
42663;DHT22;44330;51.360;6.686;2023-02-28T05:58:43;-0.30;99.90
42663;DHT22;44330;51.360;6.686;2023-02-28T06:03:48;-0.30;77.50
42663;DHT22;44330;51.360;6.686;2023-02-28T06:06:13;-0.40;92.70
42663;DHT22;44330;51.360;6.686;2023-02-28T06:08:39;-0.40;99.10
42663;DHT22;44330;51.360;6.686;2023-02-28T06:11:08;-0.50;99.90
42663;DHT22;44330;51.360;6.686;2023-02-28T06:13:34;-0.50;99.90
42663;DHT22;44330;51.360;6.686;2023-02-28T06:16:03;-0.50;99.90
42663;DHT22;44330;51.360;6.686;2023-02-28T06:18:28;-0.50;99.90
42663;DHT22;44330;51.360;6.686;2023-02-28T06:20:55;-0.40;1.00
42663;DHT22;44330;51.360;6.686;2023-02-28T06:23:21;-0.40;1.00
42663;DHT22;44330;51.360;6.686;2023-02-28T06:25:47;-0.40;99.90
42663;DHT22;44330;51.360;6.686;2023-02-28T06:28:13;-0.40;95.20
42663;DHT22;44330;51.360;6.686;2023-02-28T06:30:39;-0.40;1.00
42663;DHT22;44330;51.360;6.686;2023-02-28T06:33:04;-0.40;99.90
42663;DHT22;44330;51.360;6.686;2023-02-28T06:35:33;-0.30;99.90
42663;DHT22;44330;51.360;6.686;2023-02-28T06:37:58;-0.10;32.60
42663;DHT22;44330;51.360;6.686;2023-02-28T06:40:24;0.00;99.90
42663;DHT22;44330;51.360;6.686;2023-02-28T06:42:50;0.20;99.90
42663;DHT22;44330;51.360;6.686;2023-02-28T06:45:15;0.20;38.80
42663;DHT22;44330;51.360;6.686;2023-02-28T06:47:41;0.30;99.90
42663;DHT22;44330;51.360;6.686;2023-02-28T06:50:09;0.30;99.90
42663;DHT22;44330;51.360;6.686;2023-02-28T06:52:35;0.40;99.90
42663;DHT22;44330;51.360;6.686;2023-02-28T06:55:07;0.50;99.90
42663;DHT22;44330;51.360;6.686;2023-02-28T06:57:34;0.40;99.90
42663;DHT22;44330;51.360;6.686;2023-02-28T07:00:02;0.50;3.20
42663;DHT22;44330;51.360;6.686;2023-02-28T07:02:28;0.50;99.90
42663;DHT22;44330;51.360;6.686;2023-02-28T07:04:54;0.50;99.90
42663;DHT22;44330;51.360;6.686;2023-02-28T07:07:20;0.50;99.90
42663;DHT22;44330;51.360;6.686;2023-02-28T07:09:46;0.50;99.90
42663;DHT22;44330;51.360;6.686;2023-02-28T07:12:11;0.60;99.90
42663;DHT22;44330;51.360;6.686;2023-02-28T07:14:37;0.60;99.90
42663;DHT22;44330;51.360;6.686;2023-02-28T07:17:03;0.70;43.60
42663;DHT22;44330;51.360;6.686;2023-02-28T07:19:28;0.80;1.00
42663;DHT22;44330;51.360;6.686;2023-02-28T07:21:54;0.80;1.00
42663;DHT22;44330;51.360;6.686;2023-02-28T07:24:20;0.90;1.00
42663;DHT22;44330;51.360;6.686;2023-02-28T07:26:45;0.90;99.90
42663;DHT22;44330;51.360;6.686;2023-02-28T07:29:11;0.90;99.90
42663;DHT22;44330;51.360;6.686;2023-02-28T07:31:36;0.90;99.90
42663;DHT22;44330;51.360;6.686;2023-02-28T07:34:02;0.90;99.90
42663;DHT22;44330;51.360;6.686;2023-02-28T07:36:28;0.80;99.90
42663;DHT22;44330;51.360;6.686;2023-02-28T07:38:53;0.80;99.90
42663;DHT22;44330;51.360;6.686;2023-02-28T07:41:21;0.80;99.90
42663;DHT22;44330;51.360;6.686;2023-02-28T07:43:46;1.00;99.90
42663;DHT22;44330;51.360;6.686;2023-02-28T07:46:14;1.10;99.90
42663;DHT22;44330;51.360;6.686;2023-02-28T07:48:40;1.20;99.90
42663;DHT22;44330;51.360;6.686;2023-02-28T07:51:06;1.30;81.70
42663;DHT22;44330;51.360;6.686;2023-02-28T07:53:32;1.30;40.90
42663;DHT22;44330;51.360;6.686;2023-02-28T07:56:00;1.40;1.00
42663;DHT22;44330;51.360;6.686;2023-02-28T07:58:26;1.40;1.00
42663;DHT22;44330;51.360;6.686;2023-02-28T08:00:52;1.50;1.00
42663;DHT22;44330;51.360;6.686;2023-02-28T08:03:19;1.60;99.90
42663;DHT22;44330;51.360;6.686;2023-02-28T08:05:45;1.70;99.90
42663;DHT22;44330;51.360;6.686;2023-02-28T08:08:11;1.80;99.90
42663;DHT22;44330;51.360;6.686;2023-02-28T08:10:37;1.90;99.90
42663;DHT22;44330;51.360;6.686;2023-02-28T08:13:02;2.00;99.90
42663;DHT22;44330;51.360;6.686;2023-02-28T08:15:28;2.10;99.90
42663;DHT22;44330;51.360;6.686;2023-02-28T08:17:54;2.20;99.90
42663;DHT22;44330;51.360;6.686;2023-02-28T08:20:21;2.40;99.90
42663;DHT22;44330;51.360;6.686;2023-02-28T08:22:47;2.60;99.90
42663;DHT22;44330;51.360;6.686;2023-02-28T08:25:13;2.70;99.90
42663;DHT22;44330;51.360;6.686;2023-02-28T08:27:38;2.90;99.90
42663;DHT22;44330;51.360;6.686;2023-02-28T08:30:04;3.00;97.50
42663;DHT22;44330;51.360;6.686;2023-02-28T08:32:30;3.20;65.30
42663;DHT22;44330;51.360;6.686;2023-02-28T08:34:57;3.30;28.00
42663;DHT22;44330;51.360;6.686;2023-02-28T08:37:22;3.40;21.10
42663;DHT22;44330;51.360;6.686;2023-02-28T08:39:48;3.60;1.00
42663;DHT22;44330;51.360;6.686;2023-02-28T08:42:13;3.70;1.00
42663;DHT22;44330;51.360;6.686;2023-02-28T08:44:39;3.80;1.00
42663;DHT22;44330;51.360;6.686;2023-02-28T08:47:05;3.90;1.00
42663;DHT22;44330;51.360;6.686;2023-02-28T08:49:31;4.00;1.00
42663;DHT22;44330;51.360;6.686;2023-02-28T08:51:56;4.20;99.90
42663;DHT22;44330;51.360;6.686;2023-02-28T08:54:23;4.30;99.90
42663;DHT22;44330;51.360;6.686;2023-02-28T08:56:48;4.30;99.90
42663;DHT22;44330;51.360;6.686;2023-02-28T08:59:14;4.40;99.90
42663;DHT22;44330;51.360;6.686;2023-02-28T09:01:40;4.40;99.90
42663;DHT22;44330;51.360;6.686;2023-02-28T09:04:12;4.50;99.90
42663;DHT22;44330;51.360;6.686;2023-02-28T09:06:38;4.70;99.90
42663;DHT22;44330;51.360;6.686;2023-02-28T09:09:04;5.00;99.90
42663;DHT22;44330;51.360;6.686;2023-02-28T09:11:31;5.20;99.90
42663;DHT22;44330;51.360;6.686;2023-02-28T09:13:58;5.30;99.90
42663;DHT22;44330;51.360;6.686;2023-02-28T09:16:24;5.40;99.90
42663;DHT22;44330;51.360;6.686;2023-02-28T09:18:50;5.50;99.90
42663;DHT22;44330;51.360;6.686;2023-02-28T09:21:17;5.60;99.90
42663;DHT22;44330;51.360;6.686;2023-02-28T09:23:45;5.60;99.90
42663;DHT22;44330;51.360;6.686;2023-02-28T09:26:16;5.70;99.90
42663;DHT22;44330;51.360;6.686;2023-02-28T09:28:42;5.90;99.90
42663;DHT22;44330;51.360;6.686;2023-02-28T09:31:15;5.80;99.90
42663;DHT22;44330;51.360;6.686;2023-02-28T09:33:42;5.70;99.90
42663;DHT22;44330;51.360;6.686;2023-02-28T09:36:07;5.70;99.90
42663;DHT22;44330;51.360;6.686;2023-02-28T09:38:33;6.10;99.90
42663;DHT22;44330;51.360;6.686;2023-02-28T09:41:02;6.30;99.90
42663;DHT22;44330;51.360;6.686;2023-02-28T09:43:33;6.30;99.90
42663;DHT22;44330;51.360;6.686;2023-02-28T09:46:28;6.60;99.90
42663;DHT22;44330;51.360;6.686;2023-02-28T09:48:55;6.40;99.90
42663;DHT22;44330;51.360;6.686;2023-02-28T09:54:00;6.30;99.90
42663;DHT22;44330;51.360;6.686;2023-02-28T09:56:37;6.50;96.10
42663;DHT22;44330;51.360;6.686;2023-02-28T09:59:58;6.50;96.00
42663;DHT22;44330;51.360;6.686;2023-02-28T10:02:04;6.60;94.20
42663;DHT22;44330;51.360;6.686;2023-02-28T10:13:54;6.50;85.30
42663;DHT22;44330;51.360;6.686;2023-02-28T10:16:41;6.30;80.10
42663;DHT22;44330;51.360;6.686;2023-02-28T10:19:28;6.10;78.40
42663;DHT22;44330;51.360;6.686;2023-02-28T10:22:17;6.30;73.50
42663;DHT22;44330;51.360;6.686;2023-02-28T10:24:54;6.20;75.30
42663;DHT22;44330;51.360;6.686;2023-02-28T10:27:28;6.20;73.30
42663;DHT22;44330;51.360;6.686;2023-02-28T10:29:59;6.20;71.90
42663;DHT22;44330;51.360;6.686;2023-02-28T10:32:30;6.30;68.20
42663;DHT22;44330;51.360;6.686;2023-02-28T10:37:37;6.50;63.90
42663;DHT22;44330;51.360;6.686;2023-02-28T10:40:05;6.70;66.40
42663;DHT22;44330;51.360;6.686;2023-02-28T10:42:32;6.90;50.00
42663;DHT22;44330;51.360;6.686;2023-02-28T10:45:15;7.00;57.20
42663;DHT22;44330;51.360;6.686;2023-02-28T10:50:28;7.10;41.20
42663;DHT22;44330;51.360;6.686;2023-02-28T10:52:54;7.20;33.50
42663;DHT22;44330;51.360;6.686;2023-02-28T10:55:25;7.20;24.40
42663;DHT22;44330;51.360;6.686;2023-02-28T10:57:52;7.40;28.30
42663;DHT22;44330;51.360;6.686;2023-02-28T11:00:21;7.80;27.60
42663;DHT22;44330;51.360;6.686;2023-02-28T11:02:47;7.80;26.50
42663;DHT22;44330;51.360;6.686;2023-02-28T11:05:35;7.60;19.80
42663;DHT22;44330;51.360;6.686;2023-02-28T11:08:14;7.50;15.80
42663;DHT22;44330;51.360;6.686;2023-02-28T11:10:48;7.20;15.70
42663;DHT22;44330;51.360;6.686;2023-02-28T11:13:19;7.20;15.90
42663;DHT22;44330;51.360;6.686;2023-02-28T11:15:54;7.50;16.70
42663;DHT22;44330;51.360;6.686;2023-02-28T11:18:27;7.90;15.00
42663;DHT22;44330;51.360;6.686;2023-02-28T11:20:56;8.00;9.50
42663;DHT22;44330;51.360;6.686;2023-02-28T11:23:25;8.30;11.30
42663;DHT22;44330;51.360;6.686;2023-02-28T11:25:55;8.30;7.00
42663;DHT22;44330;51.360;6.686;2023-02-28T11:28:40;7.90;1.00
42663;DHT22;44330;51.360;6.686;2023-02-28T11:33:48;7.40;1.00
42663;DHT22;44330;51.360;6.686;2023-02-28T11:36:28;7.50;1.00
42663;DHT22;44330;51.360;6.686;2023-02-28T11:38:56;7.60;3.80
42663;DHT22;44330;51.360;6.686;2023-02-28T11:46:47;8.20;1.00
42663;DHT22;44330;51.360;6.686;2023-02-28T11:54:42;8.40;1.00
42663;DHT22;44330;51.360;6.686;2023-02-28T12:05:33;8.10;1.00
42663;DHT22;44330;51.360;6.686;2023-02-28T12:27:09;7.30;1.00
42663;DHT22;44330;51.360;6.686;2023-02-28T12:29:50;7.60;1.00
42663;DHT22;44330;51.360;6.686;2023-02-28T12:32:52;7.70;1.00
42663;DHT22;44330;51.360;6.686;2023-02-28T12:35:28;8.00;1.00
42663;DHT22;44330;51.360;6.686;2023-02-28T12:40:54;7.60;1.00
42663;DHT22;44330;51.360;6.686;2023-02-28T12:43:24;7.40;1.00
42663;DHT22;44330;51.360;6.686;2023-02-28T12:45:57;7.50;1.00
42663;DHT22;44330;51.360;6.686;2023-02-28T12:48:29;7.80;1.00
42663;DHT22;44330;51.360;6.686;2023-02-28T12:50:57;7.90;1.00
42663;DHT22;44330;51.360;6.686;2023-02-28T12:56:19;7.90;1.00
42663;DHT22;44330;51.360;6.686;2023-02-28T12:59:19;8.00;1.00
42663;DHT22;44330;51.360;6.686;2023-02-28T13:10:25;7.90;1.00
42663;DHT22;44330;51.360;6.686;2023-02-28T13:13:05;7.90;1.00
42663;DHT22;44330;51.360;6.686;2023-02-28T13:15:31;7.90;1.00
42663;DHT22;44330;51.360;6.686;2023-02-28T13:18:00;7.90;1.00
42663;DHT22;44330;51.360;6.686;2023-02-28T13:20:47;7.90;1.00
42663;DHT22;44330;51.360;6.686;2023-02-28T13:23:39;7.60;1.00
42663;DHT22;44330;51.360;6.686;2023-02-28T13:26:05;7.50;1.00
42663;DHT22;44330;51.360;6.686;2023-02-28T13:29:01;7.40;1.00
42663;DHT22;44330;51.360;6.686;2023-02-28T13:31:29;7.70;1.00
42663;DHT22;44330;51.360;6.686;2023-02-28T13:36:28;8.20;1.00
42663;DHT22;44330;51.360;6.686;2023-02-28T13:39:44;8.20;1.00
42663;DHT22;44330;51.360;6.686;2023-02-28T13:45:21;8.40;1.00
42663;DHT22;44330;51.360;6.686;2023-02-28T13:48:00;8.30;1.00
42663;DHT22;44330;51.360;6.686;2023-02-28T13:52:58;8.20;1.00
42663;DHT22;44330;51.360;6.686;2023-02-28T14:03:21;8.00;1.00
42663;DHT22;44330;51.360;6.686;2023-02-28T14:06:22;7.90;1.00
42663;DHT22;44330;51.360;6.686;2023-02-28T14:08:58;7.90;1.00
42663;DHT22;44330;51.360;6.686;2023-02-28T14:11:37;7.80;1.00
42663;DHT22;44330;51.360;6.686;2023-02-28T14:14:04;7.90;1.00
42663;DHT22;44330;51.360;6.686;2023-02-28T14:16:46;8.10;1.00
42663;DHT22;44330;51.360;6.686;2023-02-28T14:19:24;7.80;1.00
42663;DHT22;44330;51.360;6.686;2023-02-28T14:36:12;7.20;1.00
42663;DHT22;44330;51.360;6.686;2023-02-28T14:41:28;6.80;1.00
42663;DHT22;44330;51.360;6.686;2023-02-28T14:43:57;6.90;1.00
42663;DHT22;44330;51.360;6.686;2023-02-28T14:46:27;7.30;1.00
42663;DHT22;44330;51.360;6.686;2023-02-28T14:49:00;7.30;1.00
42663;DHT22;44330;51.360;6.686;2023-02-28T14:51:26;7.60;1.00
42663;DHT22;44330;51.360;6.686;2023-02-28T14:53:57;7.80;1.00
42663;DHT22;44330;51.360;6.686;2023-02-28T14:56:28;7.90;1.00
42663;DHT22;44330;51.360;6.686;2023-02-28T14:58:56;8.00;1.00
42663;DHT22;44330;51.360;6.686;2023-02-28T15:01:23;8.00;1.00
42663;DHT22;44330;51.360;6.686;2023-02-28T15:04:01;7.70;1.00
42663;DHT22;44330;51.360;6.686;2023-02-28T15:06:28;7.40;1.00
42663;DHT22;44330;51.360;6.686;2023-02-28T15:09:15;7.10;1.00
42663;DHT22;44330;51.360;6.686;2023-02-28T15:11:41;6.50;1.00
42663;DHT22;44330;51.360;6.686;2023-02-28T15:14:12;6.40;1.00
42663;DHT22;44330;51.360;6.686;2023-02-28T15:16:42;6.30;1.00
42663;DHT22;44330;51.360;6.686;2023-02-28T15:19:20;6.20;1.00
42663;DHT22;44330;51.360;6.686;2023-02-28T15:21:51;6.40;1.00
42663;DHT22;44330;51.360;6.686;2023-02-28T15:24:25;6.70;1.00
42663;DHT22;44330;51.360;6.686;2023-02-28T15:26:57;7.00;1.00
42663;DHT22;44330;51.360;6.686;2023-02-28T15:29:25;6.50;1.00
42663;DHT22;44330;51.360;6.686;2023-02-28T15:31:56;6.10;1.00
42663;DHT22;44330;51.360;6.686;2023-02-28T15:34:43;6.10;1.00
42663;DHT22;44330;51.360;6.686;2023-02-28T15:40:17;6.20;1.00
42663;DHT22;44330;51.360;6.686;2023-02-28T15:43:05;6.50;1.00
42663;DHT22;44330;51.360;6.686;2023-02-28T15:45:37;6.30;1.00
42663;DHT22;44330;51.360;6.686;2023-02-28T15:48:13;6.10;1.00
42663;DHT22;44330;51.360;6.686;2023-02-28T15:50:40;6.00;1.00
42663;DHT22;44330;51.360;6.686;2023-02-28T15:53:13;6.00;1.00
42663;DHT22;44330;51.360;6.686;2023-02-28T15:55:38;6.10;1.00
42663;DHT22;44330;51.360;6.686;2023-02-28T15:58:05;6.20;1.00
42663;DHT22;44330;51.360;6.686;2023-02-28T16:00:31;6.20;1.00
42663;DHT22;44330;51.360;6.686;2023-02-28T16:03:00;6.00;1.00
42663;DHT22;44330;51.360;6.686;2023-02-28T16:05:28;6.00;1.00
42663;DHT22;44330;51.360;6.686;2023-02-28T16:07:59;6.00;1.00
42663;DHT22;44330;51.360;6.686;2023-02-28T16:10:27;6.10;1.00
42663;DHT22;44330;51.360;6.686;2023-02-28T16:12:55;6.10;1.00
42663;DHT22;44330;51.360;6.686;2023-02-28T16:15:28;6.20;1.00
42663;DHT22;44330;51.360;6.686;2023-02-28T16:17:58;6.10;1.00
42663;DHT22;44330;51.360;6.686;2023-02-28T16:20:27;6.00;1.00
42663;DHT22;44330;51.360;6.686;2023-02-28T16:22:53;5.90;1.00
42663;DHT22;44330;51.360;6.686;2023-02-28T16:25:23;5.90;1.00
42663;DHT22;44330;51.360;6.686;2023-02-28T16:27:51;5.90;1.00
42663;DHT22;44330;51.360;6.686;2023-02-28T16:30:24;6.00;1.00
42663;DHT22;44330;51.360;6.686;2023-02-28T16:32:51;6.10;1.00
42663;DHT22;44330;51.360;6.686;2023-02-28T16:35:18;5.80;1.00
42663;DHT22;44330;51.360;6.686;2023-02-28T16:37:45;5.60;1.00
42663;DHT22;44330;51.360;6.686;2023-02-28T16:40:15;5.40;1.00
42663;DHT22;44330;51.360;6.686;2023-02-28T16:42:41;5.20;1.00
42663;DHT22;44330;51.360;6.686;2023-02-28T16:45:15;5.10;4.40
42663;DHT22;44330;51.360;6.686;2023-02-28T16:47:42;5.00;5.70
42663;DHT22;44330;51.360;6.686;2023-02-28T16:50:30;4.90;9.80
42663;DHT22;44330;51.360;6.686;2023-02-28T16:52:57;4.90;13.90
42663;DHT22;44330;51.360;6.686;2023-02-28T16:55:24;4.90;16.20
42663;DHT22;44330;51.360;6.686;2023-02-28T16:57:55;4.90;19.10
42663;DHT22;44330;51.360;6.686;2023-02-28T17:00:22;4.90;22.00
42663;DHT22;44330;51.360;6.686;2023-02-28T17:02:48;4.90;22.60
42663;DHT22;44330;51.360;6.686;2023-02-28T17:05:14;4.80;24.70
42663;DHT22;44330;51.360;6.686;2023-02-28T17:07:41;4.70;26.80
42663;DHT22;44330;51.360;6.686;2023-02-28T17:10:20;4.70;29.20
42663;DHT22;44330;51.360;6.686;2023-02-28T17:12:46;4.80;31.90
42663;DHT22;44330;51.360;6.686;2023-02-28T17:15:13;4.70;36.70
42663;DHT22;44330;51.360;6.686;2023-02-28T17:17:40;4.70;42.70
42663;DHT22;44330;51.360;6.686;2023-02-28T17:20:06;4.70;45.00
42663;DHT22;44330;51.360;6.686;2023-02-28T17:22:35;4.70;36.10
42663;DHT22;44330;51.360;6.686;2023-02-28T17:25:00;4.70;38.00
42663;DHT22;44330;51.360;6.686;2023-02-28T17:27:26;4.80;44.60
42663;DHT22;44330;51.360;6.686;2023-02-28T17:29:51;4.80;42.70
42663;DHT22;44330;51.360;6.686;2023-02-28T17:32:17;4.80;40.40
42663;DHT22;44330;51.360;6.686;2023-02-28T17:34:43;4.70;41.40
42663;DHT22;44330;51.360;6.686;2023-02-28T17:37:09;4.80;45.00
42663;DHT22;44330;51.360;6.686;2023-02-28T17:39:34;4.70;43.70
42663;DHT22;44330;51.360;6.686;2023-02-28T17:42:00;4.70;48.30
42663;DHT22;44330;51.360;6.686;2023-02-28T17:44:26;4.60;51.80
42663;DHT22;44330;51.360;6.686;2023-02-28T17:46:53;4.60;51.80
42663;DHT22;44330;51.360;6.686;2023-02-28T17:49:20;4.60;49.80
42663;DHT22;44330;51.360;6.686;2023-02-28T17:51:46;4.60;55.00
42663;DHT22;44330;51.360;6.686;2023-02-28T17:54:12;4.60;54.50
42663;DHT22;44330;51.360;6.686;2023-02-28T17:56:39;4.70;55.10
42663;DHT22;44330;51.360;6.686;2023-02-28T17:59:05;4.70;64.20
42663;DHT22;44330;51.360;6.686;2023-02-28T18:01:30;4.70;52.20
42663;DHT22;44330;51.360;6.686;2023-02-28T18:03:56;4.60;56.70
42663;DHT22;44330;51.360;6.686;2023-02-28T18:06:28;4.60;58.60
42663;DHT22;44330;51.360;6.686;2023-02-28T18:08:56;4.50;62.20
42663;DHT22;44330;51.360;6.686;2023-02-28T18:11:23;4.40;63.50
42663;DHT22;44330;51.360;6.686;2023-02-28T18:13:51;4.30;67.20
42663;DHT22;44330;51.360;6.686;2023-02-28T18:16:18;4.30;67.80
42663;DHT22;44330;51.360;6.686;2023-02-28T18:18:44;4.30;72.50
42663;DHT22;44330;51.360;6.686;2023-02-28T18:21:11;4.30;69.60
42663;DHT22;44330;51.360;6.686;2023-02-28T18:23:37;4.30;72.90
42663;DHT22;44330;51.360;6.686;2023-02-28T18:26:09;4.30;74.50
42663;DHT22;44330;51.360;6.686;2023-02-28T18:28:35;4.30;75.30
42663;DHT22;44330;51.360;6.686;2023-02-28T18:31:05;4.20;78.10